sensor_id;sensor_type;location;lat;lon;timestamp;P1;durP1;ratioP1;P2;durP2;ratioP2
7377;SDS011;3730;50.856;12.776;2023-11-19T00:00:10;0.90;;;0.90;;
7377;SDS011;3730;50.856;12.776;2023-11-19T00:02:37;1.13;;;0.97;;
7377;SDS011;3730;50.856;12.776;2023-11-19T00:05:03;0.60;;;0.60;;
7377;SDS011;3730;50.856;12.776;2023-11-19T00:07:31;0.67;;;0.67;;
7377;SDS011;3730;50.856;12.776;2023-11-19T00:09:57;0.73;;;0.73;;
7377;SDS011;3730;50.856;12.776;2023-11-19T00:12:34;1.83;;;0.73;;
7377;SDS011;3730;50.856;12.776;2023-11-19T00:15:01;1.93;;;0.80;;
7377;SDS011;3730;50.856;12.776;2023-11-19T00:17:27;0.80;;;0.80;;
7377;SDS011;3730;50.856;12.776;2023-11-19T00:19:53;0.60;;;0.60;;
7377;SDS011;3730;50.856;12.776;2023-11-19T00:22:18;0.70;;;0.67;;
7377;SDS011;3730;50.856;12.776;2023-11-19T00:24:46;0.60;;;0.60;;
7377;SDS011;3730;50.856;12.776;2023-11-19T00:27:12;0.80;;;0.50;;
7377;SDS011;3730;50.856;12.776;2023-11-19T00:29:38;0.50;;;0.50;;
7377;SDS011;3730;50.856;12.776;2023-11-19T00:32:05;0.60;;;0.60;;
7377;SDS011;3730;50.856;12.776;2023-11-19T00:34:32;0.53;;;0.53;;
7377;SDS011;3730;50.856;12.776;2023-11-19T00:36:58;0.40;;;0.40;;
7377;SDS011;3730;50.856;12.776;2023-11-19T00:39:24;0.30;;;0.30;;
7377;SDS011;3730;50.856;12.776;2023-11-19T00:41:50;0.40;;;0.40;;
7377;SDS011;3730;50.856;12.776;2023-11-19T00:44:17;0.30;;;0.30;;
7377;SDS011;3730;50.856;12.776;2023-11-19T00:46:43;0.30;;;0.30;;
7377;SDS011;3730;50.856;12.776;2023-11-19T00:49:09;0.77;;;0.40;;
7377;SDS011;3730;50.856;12.776;2023-11-19T00:51:36;1.00;;;0.50;;
7377;SDS011;3730;50.856;12.776;2023-11-19T00:54:02;0.60;;;0.50;;
7377;SDS011;3730;50.856;12.776;2023-11-19T00:56:29;0.40;;;0.40;;
7377;SDS011;3730;50.856;12.776;2023-11-19T00:58:55;1.33;;;0.60;;
7377;SDS011;3730;50.856;12.776;2023-11-19T01:01:21;0.33;;;0.33;;
7377;SDS011;3730;50.856;12.776;2023-11-19T01:03:47;0.40;;;0.40;;
7377;SDS011;3730;50.856;12.776;2023-11-19T01:06:13;0.30;;;0.30;;
7377;SDS011;3730;50.856;12.776;2023-11-19T01:08:43;0.27;;;0.27;;
7377;SDS011;3730;50.856;12.776;2023-11-19T01:11:19;0.50;;;0.30;;
7377;SDS011;3730;50.856;12.776;2023-11-19T01:13:45;0.23;;;0.23;;
7377;SDS011;3730;50.856;12.776;2023-11-19T01:16:11;0.30;;;0.30;;
7377;SDS011;3730;50.856;12.776;2023-11-19T01:18:38;0.20;;;0.20;;
7377;SDS011;3730;50.856;12.776;2023-11-19T01:21:04;0.20;;;0.20;;
7377;SDS011;3730;50.856;12.776;2023-11-19T01:23:30;0.23;;;0.23;;
7377;SDS011;3730;50.856;12.776;2023-11-19T01:25:57;0.20;;;0.20;;
7377;SDS011;3730;50.856;12.776;2023-11-19T01:28:23;0.30;;;0.30;;
7377;SDS011;3730;50.856;12.776;2023-11-19T01:30:52;0.23;;;0.23;;
7377;SDS011;3730;50.856;12.776;2023-11-19T01:33:18;0.20;;;0.20;;
7377;SDS011;3730;50.856;12.776;2023-11-19T01:35:45;0.30;;;0.30;;
7377;SDS011;3730;50.856;12.776;2023-11-19T01:38:11;0.20;;;0.20;;
7377;SDS011;3730;50.856;12.776;2023-11-19T01:40:37;0.30;;;0.30;;
7377;SDS011;3730;50.856;12.776;2023-11-19T01:43:03;0.20;;;0.20;;
7377;SDS011;3730;50.856;12.776;2023-11-19T01:45:30;0.20;;;0.20;;
7377;SDS011;3730;50.856;12.776;2023-11-19T01:47:56;0.50;;;0.20;;
7377;SDS011;3730;50.856;12.776;2023-11-19T01:50:23;0.20;;;0.20;;
7377;SDS011;3730;50.856;12.776;2023-11-19T01:52:50;0.20;;;0.20;;
7377;SDS011;3730;50.856;12.776;2023-11-19T01:55:16;0.50;;;0.40;;
7377;SDS011;3730;50.856;12.776;2023-11-19T01:57:42;0.30;;;0.30;;
7377;SDS011;3730;50.856;12.776;2023-11-19T02:00:08;0.30;;;0.30;;
7377;SDS011;3730;50.856;12.776;2023-11-19T02:02:36;0.27;;;0.27;;
7377;SDS011;3730;50.856;12.776;2023-11-19T02:05:04;0.20;;;0.20;;
7377;SDS011;3730;50.856;12.776;2023-11-19T02:07:30;0.97;;;0.30;;
7377;SDS011;3730;50.856;12.776;2023-11-19T02:09:56;0.50;;;0.20;;
7377;SDS011;3730;50.856;12.776;2023-11-19T02:12:25;0.40;;;0.40;;
7377;SDS011;3730;50.856;12.776;2023-11-19T02:14:53;0.23;;;0.23;;
7377;SDS011;3730;50.856;12.776;2023-11-19T02:17:29;0.30;;;0.30;;
7377;SDS011;3730;50.856;12.776;2023-11-19T02:19:59;0.90;;;0.40;;
7377;SDS011;3730;50.856;12.776;2023-11-19T02:22:25;0.33;;;0.33;;
7377;SDS011;3730;50.856;12.776;2023-11-19T02:24:52;0.50;;;0.50;;
7377;SDS011;3730;50.856;12.776;2023-11-19T02:27:38;1.40;;;0.40;;
7377;SDS011;3730;50.856;12.776;2023-11-19T02:30:05;0.60;;;0.60;;
7377;SDS011;3730;50.856;12.776;2023-11-19T02:32:33;1.40;;;0.50;;
7377;SDS011;3730;50.856;12.776;2023-11-19T02:35:01;0.90;;;0.57;;
7377;SDS011;3730;50.856;12.776;2023-11-19T02:37:27;0.70;;;0.70;;
7377;SDS011;3730;50.856;12.776;2023-11-19T02:39:53;0.60;;;0.60;;
7377;SDS011;3730;50.856;12.776;2023-11-19T02:42:19;0.60;;;0.60;;
7377;SDS011;3730;50.856;12.776;2023-11-19T02:44:45;0.50;;;0.50;;
7377;SDS011;3730;50.856;12.776;2023-11-19T02:47:13;0.90;;;0.80;;
7377;SDS011;3730;50.856;12.776;2023-11-19T02:49:39;0.60;;;0.60;;
7377;SDS011;3730;50.856;12.776;2023-11-19T02:52:05;0.90;;;0.90;;
7377;SDS011;3730;50.856;12.776;2023-11-19T02:54:31;0.83;;;0.83;;
7377;SDS011;3730;50.856;12.776;2023-11-19T02:57:00;0.90;;;0.90;;
7377;SDS011;3730;50.856;12.776;2023-11-19T02:59:28;0.80;;;0.80;;
7377;SDS011;3730;50.856;12.776;2023-11-19T03:02:03;0.90;;;0.90;;
7377;SDS011;3730;50.856;12.776;2023-11-19T03:04:31;0.97;;;0.97;;
7377;SDS011;3730;50.856;12.776;2023-11-19T03:06:57;0.87;;;0.87;;
7377;SDS011;3730;50.856;12.776;2023-11-19T03:09:23;0.80;;;0.80;;
7377;SDS011;3730;50.856;12.776;2023-11-19T03:11:49;0.80;;;0.80;;
7377;SDS011;3730;50.856;12.776;2023-11-19T03:14:15;1.27;;;0.67;;
7377;SDS011;3730;50.856;12.776;2023-11-19T03:16:44;0.60;;;0.60;;
7377;SDS011;3730;50.856;12.776;2023-11-19T03:19:11;1.00;;;0.80;;
7377;SDS011;3730;50.856;12.776;2023-11-19T03:21:37;0.90;;;0.90;;
7377;SDS011;3730;50.856;12.776;2023-11-19T03:24:03;2.10;;;1.13;;
7377;SDS011;3730;50.856;12.776;2023-11-19T03:26:29;1.03;;;0.60;;
7377;SDS011;3730;50.856;12.776;2023-11-19T03:28:55;0.60;;;0.60;;
7377;SDS011;3730;50.856;12.776;2023-11-19T03:31:22;0.50;;;0.50;;
7377;SDS011;3730;50.856;12.776;2023-11-19T03:33:48;1.63;;;0.57;;
7377;SDS011;3730;50.856;12.776;2023-11-19T03:36:14;0.50;;;0.50;;
7377;SDS011;3730;50.856;12.776;2023-11-19T03:38:40;0.67;;;0.67;;
7377;SDS011;3730;50.856;12.776;2023-11-19T03:41:16;0.50;;;0.43;;
7377;SDS011;3730;50.856;12.776;2023-11-19T03:43:42;0.50;;;0.50;;
7377;SDS011;3730;50.856;12.776;2023-11-19T03:46:18;0.43;;;0.43;;
7377;SDS011;3730;50.856;12.776;2023-11-19T03:48:44;0.40;;;0.40;;
7377;SDS011;3730;50.856;12.776;2023-11-19T03:51:11;0.30;;;0.30;;
7377;SDS011;3730;50.856;12.776;2023-11-19T03:53:40;0.40;;;0.40;;
7377;SDS011;3730;50.856;12.776;2023-11-19T03:56:06;0.50;;;0.50;;
7377;SDS011;3730;50.856;12.776;2023-11-19T03:58:34;0.40;;;0.30;;
7377;SDS011;3730;50.856;12.776;2023-11-19T04:01:00;0.30;;;0.30;;
7377;SDS011;3730;50.856;12.776;2023-11-19T04:03:27;0.30;;;0.30;;
7377;SDS011;3730;50.856;12.776;2023-11-19T04:05:53;0.30;;;0.30;;
7377;SDS011;3730;50.856;12.776;2023-11-19T04:08:19;0.20;;;0.20;;
7377;SDS011;3730;50.856;12.776;2023-11-19T04:10:46;0.30;;;0.30;;
7377;SDS011;3730;50.856;12.776;2023-11-19T04:13:12;0.30;;;0.30;;
7377;SDS011;3730;50.856;12.776;2023-11-19T04:15:38;0.30;;;0.30;;
7377;SDS011;3730;50.856;12.776;2023-11-19T04:18:04;0.30;;;0.30;;
7377;SDS011;3730;50.856;12.776;2023-11-19T04:20:30;0.40;;;0.40;;
7377;SDS011;3730;50.856;12.776;2023-11-19T04:22:56;0.43;;;0.43;;
7377;SDS011;3730;50.856;12.776;2023-11-19T04:25:24;0.20;;;0.20;;
7377;SDS011;3730;50.856;12.776;2023-11-19T04:27:51;0.20;;;0.20;;
7377;SDS011;3730;50.856;12.776;2023-11-19T04:30:17;0.20;;;0.20;;
7377;SDS011;3730;50.856;12.776;2023-11-19T04:32:46;0.33;;;0.33;;
7377;SDS011;3730;50.856;12.776;2023-11-19T04:35:13;0.30;;;0.30;;
7377;SDS011;3730;50.856;12.776;2023-11-19T04:37:39;0.37;;;0.37;;
7377;SDS011;3730;50.856;12.776;2023-11-19T04:40:07;0.50;;;0.30;;
7377;SDS011;3730;50.856;12.776;2023-11-19T04:42:33;0.30;;;0.30;;
7377;SDS011;3730;50.856;12.776;2023-11-19T04:44:59;0.30;;;0.30;;
7377;SDS011;3730;50.856;12.776;2023-11-19T04:47:25;0.67;;;0.43;;
7377;SDS011;3730;50.856;12.776;2023-11-19T04:49:51;0.40;;;0.40;;
7377;SDS011;3730;50.856;12.776;2023-11-19T04:52:17;0.30;;;0.30;;
7377;SDS011;3730;50.856;12.776;2023-11-19T04:54:43;3.10;;;0.50;;
7377;SDS011;3730;50.856;12.776;2023-11-19T04:57:09;0.30;;;0.30;;
7377;SDS011;3730;50.856;12.776;2023-11-19T04:59:38;0.40;;;0.40;;
7377;SDS011;3730;50.856;12.776;2023-11-19T05:02:05;0.40;;;0.40;;
7377;SDS011;3730;50.856;12.776;2023-11-19T05:04:31;0.50;;;0.50;;
7377;SDS011;3730;50.856;12.776;2023-11-19T05:06:57;0.30;;;0.30;;
7377;SDS011;3730;50.856;12.776;2023-11-19T05:09:23;0.50;;;0.50;;
7377;SDS011;3730;50.856;12.776;2023-11-19T05:11:49;0.40;;;0.40;;
7377;SDS011;3730;50.856;12.776;2023-11-19T05:14:15;0.40;;;0.40;;
7377;SDS011;3730;50.856;12.776;2023-11-19T05:16:41;0.40;;;0.40;;
7377;SDS011;3730;50.856;12.776;2023-11-19T05:19:10;0.60;;;0.60;;
7377;SDS011;3730;50.856;12.776;2023-11-19T05:21:36;0.30;;;0.30;;
7377;SDS011;3730;50.856;12.776;2023-11-19T05:24:02;0.30;;;0.30;;
7377;SDS011;3730;50.856;12.776;2023-11-19T05:26:29;3.60;;;0.50;;
7377;SDS011;3730;50.856;12.776;2023-11-19T05:28:55;0.20;;;0.20;;
7377;SDS011;3730;50.856;12.776;2023-11-19T05:31:21;1.27;;;0.50;;
7377;SDS011;3730;50.856;12.776;2023-11-19T05:33:47;0.30;;;0.30;;
7377;SDS011;3730;50.856;12.776;2023-11-19T05:36:13;0.47;;;0.47;;
7377;SDS011;3730;50.856;12.776;2023-11-19T05:38:40;0.37;;;0.37;;
7377;SDS011;3730;50.856;12.776;2023-11-19T05:41:06;0.73;;;0.43;;
7377;SDS011;3730;50.856;12.776;2023-11-19T05:43:35;0.20;;;0.20;;
7377;SDS011;3730;50.856;12.776;2023-11-19T05:46:02;1.70;;;0.30;;
7377;SDS011;3730;50.856;12.776;2023-11-19T05:48:28;0.30;;;0.30;;
7377;SDS011;3730;50.856;12.776;2023-11-19T05:50:54;0.40;;;0.40;;
7377;SDS011;3730;50.856;12.776;2023-11-19T05:53:21;0.20;;;0.20;;
7377;SDS011;3730;50.856;12.776;2023-11-19T05:55:47;0.30;;;0.30;;
7377;SDS011;3730;50.856;12.776;2023-11-19T05:58:34;1.07;;;0.60;;
7377;SDS011;3730;50.856;12.776;2023-11-19T06:01:01;0.50;;;0.50;;
7377;SDS011;3730;50.856;12.776;2023-11-19T06:03:28;0.30;;;0.30;;
7377;SDS011;3730;50.856;12.776;2023-11-19T06:05:54;0.47;;;0.47;;
7377;SDS011;3730;50.856;12.776;2023-11-19T06:08:20;0.50;;;0.43;;
7377;SDS011;3730;50.856;12.776;2023-11-19T06:10:46;0.73;;;0.40;;
7377;SDS011;3730;50.856;12.776;2023-11-19T06:13:15;0.43;;;0.43;;
7377;SDS011;3730;50.856;12.776;2023-11-19T06:15:41;0.40;;;0.40;;
7377;SDS011;3730;50.856;12.776;2023-11-19T06:18:07;0.30;;;0.30;;
7377;SDS011;3730;50.856;12.776;2023-11-19T06:20:33;0.30;;;0.30;;
7377;SDS011;3730;50.856;12.776;2023-11-19T06:23:00;0.43;;;0.40;;
7377;SDS011;3730;50.856;12.776;2023-11-19T06:25:26;0.30;;;0.30;;
7377;SDS011;3730;50.856;12.776;2023-11-19T06:27:52;0.30;;;0.30;;
7377;SDS011;3730;50.856;12.776;2023-11-19T06:30:18;0.30;;;0.30;;
7377;SDS011;3730;50.856;12.776;2023-11-19T06:32:45;0.40;;;0.40;;
7377;SDS011;3730;50.856;12.776;2023-11-19T06:35:12;0.67;;;0.50;;
7377;SDS011;3730;50.856;12.776;2023-11-19T06:37:39;0.43;;;0.30;;
7377;SDS011;3730;50.856;12.776;2023-11-19T06:40:05;0.30;;;0.30;;
7377;SDS011;3730;50.856;12.776;2023-11-19T06:42:31;0.57;;;0.37;;
7377;SDS011;3730;50.856;12.776;2023-11-19T06:44:57;0.23;;;0.23;;
7377;SDS011;3730;50.856;12.776;2023-11-19T06:47:27;0.30;;;0.30;;
7377;SDS011;3730;50.856;12.776;2023-11-19T06:49:53;1.47;;;0.37;;
7377;SDS011;3730;50.856;12.776;2023-11-19T06:52:19;0.27;;;0.27;;
7377;SDS011;3730;50.856;12.776;2023-11-19T06:54:45;0.27;;;0.27;;
7377;SDS011;3730;50.856;12.776;2023-11-19T06:57:12;0.30;;;0.30;;
7377;SDS011;3730;50.856;12.776;2023-11-19T06:59:38;0.50;;;0.40;;
7377;SDS011;3730;50.856;12.776;2023-11-19T07:02:04;0.43;;;0.43;;
7377;SDS011;3730;50.856;12.776;2023-11-19T07:04:30;0.33;;;0.30;;
7377;SDS011;3730;50.856;12.776;2023-11-19T07:06:56;0.87;;;0.40;;
7377;SDS011;3730;50.856;12.776;2023-11-19T07:09:22;0.40;;;0.40;;
7377;SDS011;3730;50.856;12.776;2023-11-19T07:11:49;0.57;;;0.40;;
7377;SDS011;3730;50.856;12.776;2023-11-19T07:14:17;0.30;;;0.30;;
7377;SDS011;3730;50.856;12.776;2023-11-19T07:16:43;1.90;;;0.57;;
7377;SDS011;3730;50.856;12.776;2023-11-19T07:19:11;0.30;;;0.30;;
7377;SDS011;3730;50.856;12.776;2023-11-19T07:21:37;0.60;;;0.40;;
7377;SDS011;3730;50.856;12.776;2023-11-19T07:24:04;0.40;;;0.33;;
7377;SDS011;3730;50.856;12.776;2023-11-19T07:26:31;0.40;;;0.40;;
7377;SDS011;3730;50.856;12.776;2023-11-19T07:28:57;1.90;;;0.37;;
7377;SDS011;3730;50.856;12.776;2023-11-19T07:31:23;0.93;;;0.60;;
7377;SDS011;3730;50.856;12.776;2023-11-19T07:33:49;1.93;;;0.50;;
7377;SDS011;3730;50.856;12.776;2023-11-19T07:36:15;0.60;;;0.57;;
7377;SDS011;3730;50.856;12.776;2023-11-19T07:38:41;0.30;;;0.30;;
7377;SDS011;3730;50.856;12.776;2023-11-19T07:41:07;1.20;;;0.40;;
7377;SDS011;3730;50.856;12.776;2023-11-19T07:43:38;0.63;;;0.30;;
7377;SDS011;3730;50.856;12.776;2023-11-19T07:46:05;0.40;;;0.40;;
7377;SDS011;3730;50.856;12.776;2023-11-19T07:48:33;0.53;;;0.40;;
7377;SDS011;3730;50.856;12.776;2023-11-19T07:51:00;1.17;;;0.50;;
7377;SDS011;3730;50.856;12.776;2023-11-19T07:53:26;0.40;;;0.40;;
7377;SDS011;3730;50.856;12.776;2023-11-19T07:55:51;0.70;;;0.70;;
7377;SDS011;3730;50.856;12.776;2023-11-19T07:58:17;3.93;;;2.00;;
7377;SDS011;3730;50.856;12.776;2023-11-19T08:00:43;5.63;;;2.30;;
7377;SDS011;3730;50.856;12.776;2023-11-19T08:03:09;4.47;;;1.70;;
7377;SDS011;3730;50.856;12.776;2023-11-19T08:05:34;2.70;;;1.40;;
7377;SDS011;3730;50.856;12.776;2023-11-19T08:08:01;1.00;;;0.77;;
7377;SDS011;3730;50.856;12.776;2023-11-19T08:10:27;1.23;;;0.93;;
7377;SDS011;3730;50.856;12.776;2023-11-19T08:12:53;0.73;;;0.60;;
7377;SDS011;3730;50.856;12.776;2023-11-19T08:15:19;2.77;;;1.07;;
7377;SDS011;3730;50.856;12.776;2023-11-19T08:17:44;8.63;;;0.90;;
7377;SDS011;3730;50.856;12.776;2023-11-19T08:20:10;1.80;;;0.50;;
7377;SDS011;3730;50.856;12.776;2023-11-19T08:22:37;1.63;;;0.67;;
7377;SDS011;3730;50.856;12.776;2023-11-19T08:25:04;1.30;;;0.60;;
7377;SDS011;3730;50.856;12.776;2023-11-19T08:27:33;0.70;;;0.70;;
7377;SDS011;3730;50.856;12.776;2023-11-19T08:29:58;1.77;;;0.80;;
7377;SDS011;3730;50.856;12.776;2023-11-19T08:32:24;1.43;;;0.80;;
7377;SDS011;3730;50.856;12.776;2023-11-19T08:34:51;1.60;;;0.70;;
7377;SDS011;3730;50.856;12.776;2023-11-19T08:37:16;1.33;;;0.90;;
7377;SDS011;3730;50.856;12.776;2023-11-19T08:39:47;0.77;;;0.70;;
7377;SDS011;3730;50.856;12.776;2023-11-19T08:42:13;1.57;;;1.23;;
7377;SDS011;3730;50.856;12.776;2023-11-19T08:44:39;1.77;;;0.70;;
7377;SDS011;3730;50.856;12.776;2023-11-19T08:47:08;0.53;;;0.53;;
7377;SDS011;3730;50.856;12.776;2023-11-19T08:49:34;1.07;;;0.90;;
7377;SDS011;3730;50.856;12.776;2023-11-19T08:52:00;2.63;;;0.80;;
7377;SDS011;3730;50.856;12.776;2023-11-19T08:54:25;2.50;;;0.80;;
7377;SDS011;3730;50.856;12.776;2023-11-19T08:56:52;2.57;;;0.70;;
7377;SDS011;3730;50.856;12.776;2023-11-19T08:59:18;2.60;;;0.90;;
7377;SDS011;3730;50.856;12.776;2023-11-19T09:01:44;1.57;;;0.77;;
7377;SDS011;3730;50.856;12.776;2023-11-19T09:04:09;1.00;;;0.80;;
7377;SDS011;3730;50.856;12.776;2023-11-19T09:06:36;1.73;;;0.90;;
7377;SDS011;3730;50.856;12.776;2023-11-19T09:09:01;0.93;;;0.70;;
7377;SDS011;3730;50.856;12.776;2023-11-19T09:11:28;4.33;;;0.80;;
7377;SDS011;3730;50.856;12.776;2023-11-19T09:13:54;1.70;;;1.10;;
7377;SDS011;3730;50.856;12.776;2023-11-19T09:16:20;1.43;;;0.90;;
7377;SDS011;3730;50.856;12.776;2023-11-19T09:18:45;1.33;;;0.70;;
7377;SDS011;3730;50.856;12.776;2023-11-19T09:21:11;0.80;;;0.80;;
7377;SDS011;3730;50.856;12.776;2023-11-19T09:23:37;5.23;;;1.60;;
7377;SDS011;3730;50.856;12.776;2023-11-19T09:26:04;1.07;;;0.97;;
7377;SDS011;3730;50.856;12.776;2023-11-19T09:28:30;1.70;;;1.13;;
7377;SDS011;3730;50.856;12.776;2023-11-19T09:30:56;0.97;;;0.90;;
7377;SDS011;3730;50.856;12.776;2023-11-19T09:33:24;1.97;;;1.00;;
7377;SDS011;3730;50.856;12.776;2023-11-19T09:35:50;2.67;;;0.90;;
7377;SDS011;3730;50.856;12.776;2023-11-19T09:38:16;2.63;;;1.03;;
7377;SDS011;3730;50.856;12.776;2023-11-19T09:40:42;2.20;;;0.90;;
7377;SDS011;3730;50.856;12.776;2023-11-19T09:43:07;1.30;;;0.70;;
7377;SDS011;3730;50.856;12.776;2023-11-19T09:45:39;1.40;;;0.80;;
7377;SDS011;3730;50.856;12.776;2023-11-19T09:48:18;1.10;;;0.70;;
7377;SDS011;3730;50.856;12.776;2023-11-19T09:50:48;1.67;;;0.80;;
7377;SDS011;3730;50.856;12.776;2023-11-19T09:53:15;0.80;;;0.70;;
7377;SDS011;3730;50.856;12.776;2023-11-19T09:55:41;2.30;;;1.03;;
7377;SDS011;3730;50.856;12.776;2023-11-19T09:58:07;1.53;;;0.80;;
7377;SDS011;3730;50.856;12.776;2023-11-19T10:00:34;1.47;;;1.00;;
7377;SDS011;3730;50.856;12.776;2023-11-19T10:02:59;3.70;;;1.27;;
7377;SDS011;3730;50.856;12.776;2023-11-19T10:05:25;1.93;;;1.40;;
7377;SDS011;3730;50.856;12.776;2023-11-19T10:07:51;1.20;;;1.10;;
7377;SDS011;3730;50.856;12.776;2023-11-19T10:10:17;1.80;;;1.40;;
7377;SDS011;3730;50.856;12.776;2023-11-19T10:12:47;1.40;;;1.00;;
7377;SDS011;3730;50.856;12.776;2023-11-19T10:15:22;1.10;;;1.00;;
7377;SDS011;3730;50.856;12.776;2023-11-19T10:17:50;1.37;;;1.27;;
7377;SDS011;3730;50.856;12.776;2023-11-19T10:20:16;2.30;;;1.30;;
7377;SDS011;3730;50.856;12.776;2023-11-19T10:22:42;1.50;;;1.13;;
7377;SDS011;3730;50.856;12.776;2023-11-19T10:25:29;1.20;;;1.10;;
7377;SDS011;3730;50.856;12.776;2023-11-19T10:27:55;1.80;;;0.90;;
7377;SDS011;3730;50.856;12.776;2023-11-19T10:30:22;3.83;;;1.17;;
7377;SDS011;3730;50.856;12.776;2023-11-19T10:33:02;2.33;;;1.13;;
7377;SDS011;3730;50.856;12.776;2023-11-19T10:35:28;2.80;;;1.30;;
7377;SDS011;3730;50.856;12.776;2023-11-19T10:37:53;3.77;;;1.30;;
7377;SDS011;3730;50.856;12.776;2023-11-19T10:40:19;4.83;;;1.30;;
7377;SDS011;3730;50.856;12.776;2023-11-19T10:42:45;5.90;;;1.40;;
7377;SDS011;3730;50.856;12.776;2023-11-19T10:45:23;3.93;;;1.40;;
7377;SDS011;3730;50.856;12.776;2023-11-19T10:47:49;4.57;;;1.83;;
7377;SDS011;3730;50.856;12.776;2023-11-19T10:50:16;4.50;;;1.63;;
7377;SDS011;3730;50.856;12.776;2023-11-19T10:52:42;7.30;;;1.37;;
7377;SDS011;3730;50.856;12.776;2023-11-19T10:55:10;3.70;;;1.63;;
7377;SDS011;3730;50.856;12.776;2023-11-19T10:57:40;3.10;;;1.37;;
7377;SDS011;3730;50.856;12.776;2023-11-19T11:00:09;6.97;;;1.43;;
7377;SDS011;3730;50.856;12.776;2023-11-19T11:02:39;3.33;;;1.80;;
7377;SDS011;3730;50.856;12.776;2023-11-19T11:05:07;5.97;;;1.50;;
7377;SDS011;3730;50.856;12.776;2023-11-19T11:07:33;5.43;;;1.83;;
7377;SDS011;3730;50.856;12.776;2023-11-19T11:10:00;3.37;;;1.60;;
7377;SDS011;3730;50.856;12.776;2023-11-19T11:12:26;3.70;;;1.57;;
7377;SDS011;3730;50.856;12.776;2023-11-19T11:14:53;8.67;;;4.47;;
7377;SDS011;3730;50.856;12.776;2023-11-19T11:17:20;4.10;;;1.70;;
7377;SDS011;3730;50.856;12.776;2023-11-19T11:19:50;6.30;;;1.90;;
7377;SDS011;3730;50.856;12.776;2023-11-19T11:22:16;8.53;;;1.87;;
7377;SDS011;3730;50.856;12.776;2023-11-19T11:32:49;6.27;;;2.00;;
7377;SDS011;3730;50.856;12.776;2023-11-19T11:35:42;9.27;;;2.73;;
7377;SDS011;3730;50.856;12.776;2023-11-19T11:38:13;7.43;;;2.30;;
7377;SDS011;3730;50.856;12.776;2023-11-19T11:40:40;6.30;;;1.80;;
7377;SDS011;3730;50.856;12.776;2023-11-19T11:45:52;8.30;;;2.07;;
7377;SDS011;3730;50.856;12.776;2023-11-19T11:48:19;11.90;;;2.97;;
7377;SDS011;3730;50.856;12.776;2023-11-19T11:50:49;7.67;;;2.67;;
7377;SDS011;3730;50.856;12.776;2023-11-19T11:53:16;12.30;;;3.67;;
7377;SDS011;3730;50.856;12.776;2023-11-19T11:58:20;9.40;;;2.63;;
7377;SDS011;3730;50.856;12.776;2023-11-19T12:00:47;8.77;;;2.90;;
7377;SDS011;3730;50.856;12.776;2023-11-19T12:03:14;10.00;;;3.20;;
7377;SDS011;3730;50.856;12.776;2023-11-19T12:05:44;10.23;;;2.70;;
7377;SDS011;3730;50.856;12.776;2023-11-19T12:08:11;9.27;;;2.80;;
7377;SDS011;3730;50.856;12.776;2023-11-19T12:10:44;7.90;;;2.20;;
7377;SDS011;3730;50.856;12.776;2023-11-19T12:13:10;9.13;;;2.90;;
7377;SDS011;3730;50.856;12.776;2023-11-19T12:18:24;10.00;;;3.07;;
7377;SDS011;3730;50.856;12.776;2023-11-19T12:20:51;11.70;;;3.20;;
7377;SDS011;3730;50.856;12.776;2023-11-19T12:23:17;7.77;;;2.80;;
7377;SDS011;3730;50.856;12.776;2023-11-19T12:25:43;11.37;;;2.73;;
7377;SDS011;3730;50.856;12.776;2023-11-19T12:28:14;7.40;;;2.97;;
7377;SDS011;3730;50.856;12.776;2023-11-19T12:30:45;9.27;;;2.73;;
7377;SDS011;3730;50.856;12.776;2023-11-19T12:33:12;8.67;;;2.50;;
7377;SDS011;3730;50.856;12.776;2023-11-19T12:35:45;11.83;;;3.03;;
7377;SDS011;3730;50.856;12.776;2023-11-19T12:40:48;10.87;;;4.00;;
7377;SDS011;3730;50.856;12.776;2023-11-19T12:43:28;13.37;;;4.90;;
7377;SDS011;3730;50.856;12.776;2023-11-19T12:45:54;12.87;;;5.07;;
7377;SDS011;3730;50.856;12.776;2023-11-19T12:48:20;12.60;;;3.83;;
7377;SDS011;3730;50.856;12.776;2023-11-19T12:50:55;10.37;;;3.77;;
7377;SDS011;3730;50.856;12.776;2023-11-19T12:53:23;9.73;;;3.67;;
7377;SDS011;3730;50.856;12.776;2023-11-19T12:55:50;9.73;;;3.60;;
7377;SDS011;3730;50.856;12.776;2023-11-19T12:58:37;9.00;;;3.30;;
7377;SDS011;3730;50.856;12.776;2023-11-19T13:01:04;8.83;;;3.07;;
7377;SDS011;3730;50.856;12.776;2023-11-19T13:03:35;7.77;;;2.70;;
7377;SDS011;3730;50.856;12.776;2023-11-19T13:08:39;7.33;;;3.10;;
7377;SDS011;3730;50.856;12.776;2023-11-19T13:11:09;9.60;;;2.90;;
7377;SDS011;3730;50.856;12.776;2023-11-19T13:16:20;11.47;;;2.67;;
7377;SDS011;3730;50.856;12.776;2023-11-19T13:18:46;10.20;;;3.07;;
7377;SDS011;3730;50.856;12.776;2023-11-19T13:21:12;8.23;;;2.60;;
7377;SDS011;3730;50.856;12.776;2023-11-19T13:23:38;10.60;;;3.23;;
7377;SDS011;3730;50.856;12.776;2023-11-19T13:26:04;12.20;;;4.30;;
7377;SDS011;3730;50.856;12.776;2023-11-19T13:28:30;7.10;;;2.50;;
7377;SDS011;3730;50.856;12.776;2023-11-19T13:30:56;7.60;;;2.77;;
7377;SDS011;3730;50.856;12.776;2023-11-19T13:33:23;9.43;;;2.30;;
7377;SDS011;3730;50.856;12.776;2023-11-19T13:35:48;7.63;;;2.37;;
7377;SDS011;3730;50.856;12.776;2023-11-19T13:38:14;9.10;;;2.60;;
7377;SDS011;3730;50.856;12.776;2023-11-19T13:40:39;9.33;;;3.03;;
7377;SDS011;3730;50.856;12.776;2023-11-19T13:43:05;10.67;;;2.70;;
7377;SDS011;3730;50.856;12.776;2023-11-19T13:45:31;9.47;;;2.73;;
7377;SDS011;3730;50.856;12.776;2023-11-19T13:47:57;8.70;;;2.50;;
7377;SDS011;3730;50.856;12.776;2023-11-19T13:50:23;12.60;;;2.50;;
7377;SDS011;3730;50.856;12.776;2023-11-19T13:52:49;10.97;;;2.90;;
7377;SDS011;3730;50.856;12.776;2023-11-19T13:55:14;9.80;;;2.50;;
7377;SDS011;3730;50.856;12.776;2023-11-19T13:57:40;8.27;;;2.40;;
7377;SDS011;3730;50.856;12.776;2023-11-19T14:00:10;8.33;;;2.27;;
7377;SDS011;3730;50.856;12.776;2023-11-19T14:02:41;8.33;;;2.20;;
7377;SDS011;3730;50.856;12.776;2023-11-19T14:05:08;8.97;;;2.37;;
7377;SDS011;3730;50.856;12.776;2023-11-19T14:07:35;5.43;;;2.57;;
7377;SDS011;3730;50.856;12.776;2023-11-19T14:10:01;10.63;;;2.87;;
7377;SDS011;3730;50.856;12.776;2023-11-19T14:12:28;10.40;;;2.60;;
7377;SDS011;3730;50.856;12.776;2023-11-19T14:14:54;9.63;;;3.13;;
7377;SDS011;3730;50.856;12.776;2023-11-19T14:17:19;9.20;;;3.03;;
7377;SDS011;3730;50.856;12.776;2023-11-19T14:19:45;9.00;;;2.90;;
7377;SDS011;3730;50.856;12.776;2023-11-19T14:22:11;8.53;;;2.40;;
7377;SDS011;3730;50.856;12.776;2023-11-19T14:24:37;8.63;;;2.60;;
7377;SDS011;3730;50.856;12.776;2023-11-19T14:27:03;6.33;;;2.73;;
7377;SDS011;3730;50.856;12.776;2023-11-19T14:29:28;7.63;;;3.03;;
7377;SDS011;3730;50.856;12.776;2023-11-19T14:31:57;9.07;;;3.10;;
7377;SDS011;3730;50.856;12.776;2023-11-19T14:34:24;12.77;;;3.03;;
7377;SDS011;3730;50.856;12.776;2023-11-19T14:36:51;7.00;;;2.30;;
7377;SDS011;3730;50.856;12.776;2023-11-19T14:39:17;8.47;;;2.43;;
7377;SDS011;3730;50.856;12.776;2023-11-19T14:41:43;7.60;;;1.90;;
7377;SDS011;3730;50.856;12.776;2023-11-19T14:44:09;12.43;;;2.63;;
7377;SDS011;3730;50.856;12.776;2023-11-19T14:46:35;8.20;;;2.30;;
7377;SDS011;3730;50.856;12.776;2023-11-19T14:49:01;8.50;;;2.20;;
7377;SDS011;3730;50.856;12.776;2023-11-19T14:51:28;6.30;;;2.10;;
7377;SDS011;3730;50.856;12.776;2023-11-19T14:53:54;9.53;;;1.90;;
7377;SDS011;3730;50.856;12.776;2023-11-19T14:56:20;6.67;;;2.50;;
7377;SDS011;3730;50.856;12.776;2023-11-19T14:58:46;5.07;;;1.90;;
7377;SDS011;3730;50.856;12.776;2023-11-19T15:01:12;6.77;;;2.30;;
7377;SDS011;3730;50.856;12.776;2023-11-19T15:03:38;7.63;;;2.23;;
7377;SDS011;3730;50.856;12.776;2023-11-19T15:06:04;9.90;;;2.20;;
7377;SDS011;3730;50.856;12.776;2023-11-19T15:08:31;6.10;;;2.10;;
7377;SDS011;3730;50.856;12.776;2023-11-19T15:10:57;8.67;;;2.60;;
7377;SDS011;3730;50.856;12.776;2023-11-19T15:13:23;11.10;;;2.47;;
7377;SDS011;3730;50.856;12.776;2023-11-19T15:15:49;5.97;;;2.37;;
7377;SDS011;3730;50.856;12.776;2023-11-19T15:18:15;7.23;;;3.10;;
7377;SDS011;3730;50.856;12.776;2023-11-19T15:20:42;8.23;;;2.67;;
7377;SDS011;3730;50.856;12.776;2023-11-19T15:23:12;6.00;;;2.40;;